sensor_id;sensor_type;location;lat;lon;timestamp;P1;durP1;ratioP1;P2;durP2;ratioP2
7173;SDS011;3628;48.654;8.932;2023-08-01T00:00:28;2.40;;;1.70;;
7173;SDS011;3628;48.654;8.932;2023-08-01T00:02:54;2.73;;;1.97;;
7173;SDS011;3628;48.654;8.932;2023-08-01T00:05:20;2.63;;;1.83;;
7173;SDS011;3628;48.654;8.932;2023-08-01T00:07:45;2.55;;;1.73;;
7173;SDS011;3628;48.654;8.932;2023-08-01T00:10:11;3.47;;;1.83;;
7173;SDS011;3628;48.654;8.932;2023-08-01T00:12:36;2.63;;;1.90;;
7173;SDS011;3628;48.654;8.932;2023-08-01T00:15:02;3.72;;;1.85;;
7173;SDS011;3628;48.654;8.932;2023-08-01T00:17:28;3.83;;;1.73;;
7173;SDS011;3628;48.654;8.932;2023-08-01T00:19:54;2.73;;;1.87;;
7173;SDS011;3628;48.654;8.932;2023-08-01T00:22:20;3.43;;;2.27;;
7173;SDS011;3628;48.654;8.932;2023-08-01T00:24:45;4.87;;;1.87;;
7173;SDS011;3628;48.654;8.932;2023-08-01T00:27:12;2.60;;;1.70;;
7173;SDS011;3628;48.654;8.932;2023-08-01T00:29:38;2.80;;;1.70;;
7173;SDS011;3628;48.654;8.932;2023-08-01T00:32:04;3.17;;;1.90;;
7173;SDS011;3628;48.654;8.932;2023-08-01T00:34:30;3.67;;;1.98;;
7173;SDS011;3628;48.654;8.932;2023-08-01T00:36:56;3.08;;;1.90;;
7173;SDS011;3628;48.654;8.932;2023-08-01T00:39:22;2.58;;;1.85;;
7173;SDS011;3628;48.654;8.932;2023-08-01T00:41:47;3.53;;;2.08;;
7173;SDS011;3628;48.654;8.932;2023-08-01T00:44:13;4.35;;;1.90;;
7173;SDS011;3628;48.654;8.932;2023-08-01T00:46:39;3.35;;;1.83;;
7173;SDS011;3628;48.654;8.932;2023-08-01T00:49:05;2.58;;;2.10;;
7173;SDS011;3628;48.654;8.932;2023-08-01T00:51:31;2.63;;;1.90;;
7173;SDS011;3628;48.654;8.932;2023-08-01T00:53:57;3.25;;;1.80;;
7173;SDS011;3628;48.654;8.932;2023-08-01T00:56:23;2.63;;;1.88;;
7173;SDS011;3628;48.654;8.932;2023-08-01T00:58:49;7.97;;;1.92;;
7173;SDS011;3628;48.654;8.932;2023-08-01T01:01:15;2.10;;;1.85;;
7173;SDS011;3628;48.654;8.932;2023-08-01T01:03:40;3.42;;;2.20;;
7173;SDS011;3628;48.654;8.932;2023-08-01T01:06:08;2.35;;;1.90;;
7173;SDS011;3628;48.654;8.932;2023-08-01T01:08:40;2.55;;;1.88;;
7173;SDS011;3628;48.654;8.932;2023-08-01T01:11:06;3.22;;;2.17;;
7173;SDS011;3628;48.654;8.932;2023-08-01T01:13:33;2.45;;;1.90;;
7173;SDS011;3628;48.654;8.932;2023-08-01T01:15:58;3.05;;;1.88;;
7173;SDS011;3628;48.654;8.932;2023-08-01T01:18:24;3.93;;;2.00;;
7173;SDS011;3628;48.654;8.932;2023-08-01T01:20:50;4.25;;;2.25;;
7173;SDS011;3628;48.654;8.932;2023-08-01T01:23:15;2.13;;;1.70;;
7173;SDS011;3628;48.654;8.932;2023-08-01T01:25:41;3.55;;;2.15;;
7173;SDS011;3628;48.654;8.932;2023-08-01T01:28:07;3.05;;;2.03;;
7173;SDS011;3628;48.654;8.932;2023-08-01T01:30:34;1.98;;;1.77;;
7173;SDS011;3628;48.654;8.932;2023-08-01T01:33:01;2.97;;;1.90;;
7173;SDS011;3628;48.654;8.932;2023-08-01T01:35:28;2.60;;;2.05;;
7173;SDS011;3628;48.654;8.932;2023-08-01T01:37:54;5.28;;;2.25;;
7173;SDS011;3628;48.654;8.932;2023-08-01T01:40:20;2.65;;;1.88;;
7173;SDS011;3628;48.654;8.932;2023-08-01T01:42:45;3.17;;;2.08;;
7173;SDS011;3628;48.654;8.932;2023-08-01T01:45:11;3.35;;;2.08;;
7173;SDS011;3628;48.654;8.932;2023-08-01T01:47:36;3.38;;;1.48;;
7173;SDS011;3628;48.654;8.932;2023-08-01T01:50:02;2.33;;;2.00;;
7173;SDS011;3628;48.654;8.932;2023-08-01T01:52:28;3.58;;;2.45;;
7173;SDS011;3628;48.654;8.932;2023-08-01T01:54:53;2.50;;;2.03;;
7173;SDS011;3628;48.654;8.932;2023-08-01T01:57:19;4.20;;;1.98;;
7173;SDS011;3628;48.654;8.932;2023-08-01T01:59:44;2.40;;;1.60;;
7173;SDS011;3628;48.654;8.932;2023-08-01T02:02:10;3.65;;;2.08;;
7173;SDS011;3628;48.654;8.932;2023-08-01T02:04:36;4.32;;;2.10;;
7173;SDS011;3628;48.654;8.932;2023-08-01T02:07:01;3.00;;;1.83;;
7173;SDS011;3628;48.654;8.932;2023-08-01T02:09:28;2.42;;;1.58;;
7173;SDS011;3628;48.654;8.932;2023-08-01T02:11:53;2.30;;;1.60;;
7173;SDS011;3628;48.654;8.932;2023-08-01T02:14:19;2.63;;;1.80;;
7173;SDS011;3628;48.654;8.932;2023-08-01T02:16:44;5.00;;;2.38;;
7173;SDS011;3628;48.654;8.932;2023-08-01T02:19:10;2.70;;;1.90;;
7173;SDS011;3628;48.654;8.932;2023-08-01T02:21:35;2.22;;;1.83;;
7173;SDS011;3628;48.654;8.932;2023-08-01T02:24:01;4.85;;;2.15;;
7173;SDS011;3628;48.654;8.932;2023-08-01T02:26:28;3.08;;;1.95;;
7173;SDS011;3628;48.654;8.932;2023-08-01T02:28:54;3.50;;;2.08;;
7173;SDS011;3628;48.654;8.932;2023-08-01T02:31:20;3.58;;;1.98;;
7173;SDS011;3628;48.654;8.932;2023-08-01T02:33:45;2.43;;;1.70;;
7173;SDS011;3628;48.654;8.932;2023-08-01T02:36:11;2.70;;;2.00;;
7173;SDS011;3628;48.654;8.932;2023-08-01T02:38:37;2.70;;;2.00;;
7173;SDS011;3628;48.654;8.932;2023-08-01T02:41:02;3.35;;;2.05;;
7173;SDS011;3628;48.654;8.932;2023-08-01T02:43:28;2.53;;;1.63;;
7173;SDS011;3628;48.654;8.932;2023-08-01T02:45:53;3.10;;;2.03;;
7173;SDS011;3628;48.654;8.932;2023-08-01T02:48:19;3.65;;;1.95;;
7173;SDS011;3628;48.654;8.932;2023-08-01T02:50:45;3.65;;;2.10;;
7173;SDS011;3628;48.654;8.932;2023-08-01T02:53:11;2.90;;;1.80;;
7173;SDS011;3628;48.654;8.932;2023-08-01T02:55:36;4.33;;;1.87;;
7173;SDS011;3628;48.654;8.932;2023-08-01T02:58:02;2.20;;;1.70;;
7173;SDS011;3628;48.654;8.932;2023-08-01T03:00:27;3.38;;;1.85;;
7173;SDS011;3628;48.654;8.932;2023-08-01T03:02:53;5.45;;;1.90;;
7173;SDS011;3628;48.654;8.932;2023-08-01T03:05:18;3.37;;;1.67;;
7173;SDS011;3628;48.654;8.932;2023-08-01T03:07:44;2.63;;;1.88;;
7173;SDS011;3628;48.654;8.932;2023-08-01T03:10:09;5.07;;;2.03;;
7173;SDS011;3628;48.654;8.932;2023-08-01T03:12:36;2.25;;;1.83;;
7173;SDS011;3628;48.654;8.932;2023-08-01T03:15:02;2.13;;;1.90;;
7173;SDS011;3628;48.654;8.932;2023-08-01T03:17:28;4.20;;;1.80;;
7173;SDS011;3628;48.654;8.932;2023-08-01T03:19:53;4.47;;;1.85;;
7173;SDS011;3628;48.654;8.932;2023-08-01T03:22:19;3.60;;;2.00;;
7173;SDS011;3628;48.654;8.932;2023-08-01T03:24:45;4.10;;;1.95;;
7173;SDS011;3628;48.654;8.932;2023-08-01T03:27:10;3.08;;;2.15;;
7173;SDS011;3628;48.654;8.932;2023-08-01T03:29:36;2.92;;;1.80;;
7173;SDS011;3628;48.654;8.932;2023-08-01T03:32:02;5.10;;;2.10;;
7173;SDS011;3628;48.654;8.932;2023-08-01T03:34:27;4.30;;;1.90;;
7173;SDS011;3628;48.654;8.932;2023-08-01T03:36:53;4.32;;;2.10;;
7173;SDS011;3628;48.654;8.932;2023-08-01T03:39:18;3.47;;;2.05;;
7173;SDS011;3628;48.654;8.932;2023-08-01T03:41:45;2.65;;;2.05;;
7173;SDS011;3628;48.654;8.932;2023-08-01T03:44:10;3.05;;;2.00;;
7173;SDS011;3628;48.654;8.932;2023-08-01T03:46:36;4.40;;;2.05;;
7173;SDS011;3628;48.654;8.932;2023-08-01T03:49:01;2.30;;;1.90;;
7173;SDS011;3628;48.654;8.932;2023-08-01T03:51:27;3.00;;;1.85;;
7173;SDS011;3628;48.654;8.932;2023-08-01T03:53:52;3.22;;;1.80;;
7173;SDS011;3628;48.654;8.932;2023-08-01T03:56:18;2.58;;;1.92;;
7173;SDS011;3628;48.654;8.932;2023-08-01T03:58:43;3.47;;;1.90;;
7173;SDS011;3628;48.654;8.932;2023-08-01T04:01:09;3.30;;;1.88;;
7173;SDS011;3628;48.654;8.932;2023-08-01T04:03:37;4.80;;;2.33;;
7173;SDS011;3628;48.654;8.932;2023-08-01T04:06:02;2.35;;;1.95;;
7173;SDS011;3628;48.654;8.932;2023-08-01T04:08:28;4.28;;;2.30;;
7173;SDS011;3628;48.654;8.932;2023-08-01T04:10:53;4.40;;;1.70;;
7173;SDS011;3628;48.654;8.932;2023-08-01T04:13:19;5.20;;;1.70;;
7173;SDS011;3628;48.654;8.932;2023-08-01T04:15:45;2.72;;;1.80;;
7173;SDS011;3628;48.654;8.932;2023-08-01T04:18:10;1.70;;;1.55;;
7173;SDS011;3628;48.654;8.932;2023-08-01T04:20:36;4.00;;;1.73;;
7173;SDS011;3628;48.654;8.932;2023-08-01T04:23:01;2.20;;;1.80;;
7173;SDS011;3628;48.654;8.932;2023-08-01T04:25:27;5.15;;;2.25;;
7173;SDS011;3628;48.654;8.932;2023-08-01T04:27:53;3.40;;;1.95;;
7173;SDS011;3628;48.654;8.932;2023-08-01T04:30:18;4.45;;;2.05;;
7173;SDS011;3628;48.654;8.932;2023-08-01T04:32:44;2.75;;;1.98;;
7173;SDS011;3628;48.654;8.932;2023-08-01T04:35:10;3.33;;;1.80;;
7173;SDS011;3628;48.654;8.932;2023-08-01T04:37:35;2.53;;;1.97;;
7173;SDS011;3628;48.654;8.932;2023-08-01T04:40:01;2.83;;;2.27;;
7173;SDS011;3628;48.654;8.932;2023-08-01T04:42:28;3.03;;;1.93;;
7173;SDS011;3628;48.654;8.932;2023-08-01T04:44:55;2.50;;;1.80;;
7173;SDS011;3628;48.654;8.932;2023-08-01T04:47:20;4.53;;;2.03;;
7173;SDS011;3628;48.654;8.932;2023-08-01T04:49:46;3.27;;;2.03;;
7173;SDS011;3628;48.654;8.932;2023-08-01T04:52:12;3.63;;;1.80;;
7173;SDS011;3628;48.654;8.932;2023-08-01T04:54:37;4.80;;;1.85;;
7173;SDS011;3628;48.654;8.932;2023-08-01T04:57:03;2.97;;;1.97;;
7173;SDS011;3628;48.654;8.932;2023-08-01T04:59:29;3.20;;;2.20;;
7173;SDS011;3628;48.654;8.932;2023-08-01T05:01:55;2.03;;;1.60;;
7173;SDS011;3628;48.654;8.932;2023-08-01T05:04:20;2.07;;;1.60;;
7173;SDS011;3628;48.654;8.932;2023-08-01T05:06:46;2.80;;;1.90;;
7173;SDS011;3628;48.654;8.932;2023-08-01T05:09:12;3.97;;;2.00;;
7173;SDS011;3628;48.654;8.932;2023-08-01T05:11:37;3.13;;;1.97;;
7173;SDS011;3628;48.654;8.932;2023-08-01T05:14:03;3.73;;;2.33;;
7173;SDS011;3628;48.654;8.932;2023-08-01T05:16:28;3.78;;;2.30;;
7173;SDS011;3628;48.654;8.932;2023-08-01T05:18:54;3.10;;;2.30;;
7173;SDS011;3628;48.654;8.932;2023-08-01T05:21:19;3.10;;;2.20;;
7173;SDS011;3628;48.654;8.932;2023-08-01T05:23:45;3.70;;;2.43;;
7173;SDS011;3628;48.654;8.932;2023-08-01T05:26:10;3.77;;;2.27;;
7173;SDS011;3628;48.654;8.932;2023-08-01T05:28:36;3.45;;;2.20;;
7173;SDS011;3628;48.654;8.932;2023-08-01T05:31:01;3.37;;;2.40;;
7173;SDS011;3628;48.654;8.932;2023-08-01T05:33:27;5.13;;;2.42;;
7173;SDS011;3628;48.654;8.932;2023-08-01T05:35:52;3.25;;;2.33;;
7173;SDS011;3628;48.654;8.932;2023-08-01T05:38:18;5.77;;;2.10;;
7173;SDS011;3628;48.654;8.932;2023-08-01T05:40:43;3.55;;;1.77;;
7173;SDS011;3628;48.654;8.932;2023-08-01T05:43:09;6.18;;;2.45;;
7173;SDS011;3628;48.654;8.932;2023-08-01T05:45:35;6.75;;;2.40;;
7173;SDS011;3628;48.654;8.932;2023-08-01T05:48:01;2.90;;;2.00;;
7173;SDS011;3628;48.654;8.932;2023-08-01T05:50:27;3.22;;;2.10;;
7173;SDS011;3628;48.654;8.932;2023-08-01T05:52:53;2.85;;;2.20;;
7173;SDS011;3628;48.654;8.932;2023-08-01T05:55:18;3.38;;;2.08;;
7173;SDS011;3628;48.654;8.932;2023-08-01T05:57:44;3.43;;;1.90;;
7173;SDS011;3628;48.654;8.932;2023-08-01T06:00:10;3.25;;;2.28;;
7173;SDS011;3628;48.654;8.932;2023-08-01T06:02:36;1.95;;;1.60;;
7173;SDS011;3628;48.654;8.932;2023-08-01T06:05:02;4.88;;;2.17;;
7173;SDS011;3628;48.654;8.932;2023-08-01T06:07:28;3.90;;;2.27;;
7173;SDS011;3628;48.654;8.932;2023-08-01T06:09:54;2.22;;;1.85;;
7173;SDS011;3628;48.654;8.932;2023-08-01T06:12:19;3.28;;;2.20;;
7173;SDS011;3628;48.654;8.932;2023-08-01T06:14:45;3.27;;;2.03;;
7173;SDS011;3628;48.654;8.932;2023-08-01T06:17:12;2.37;;;2.03;;
7173;SDS011;3628;48.654;8.932;2023-08-01T06:19:37;3.28;;;2.20;;
7173;SDS011;3628;48.654;8.932;2023-08-01T06:22:03;3.95;;;2.65;;
7173;SDS011;3628;48.654;8.932;2023-08-01T06:24:28;3.47;;;2.28;;
7173;SDS011;3628;48.654;8.932;2023-08-01T06:26:54;5.80;;;2.80;;
7173;SDS011;3628;48.654;8.932;2023-08-01T06:29:19;4.32;;;2.95;;
7173;SDS011;3628;48.654;8.932;2023-08-01T06:31:45;4.37;;;3.20;;
7173;SDS011;3628;48.654;8.932;2023-08-01T06:34:10;5.53;;;2.90;;
7173;SDS011;3628;48.654;8.932;2023-08-01T06:36:36;4.72;;;2.95;;
7173;SDS011;3628;48.654;8.932;2023-08-01T06:39:02;4.95;;;3.35;;
7173;SDS011;3628;48.654;8.932;2023-08-01T06:41:28;4.97;;;3.25;;
7173;SDS011;3628;48.654;8.932;2023-08-01T06:43:54;4.07;;;3.22;;
7173;SDS011;3628;48.654;8.932;2023-08-01T06:46:19;4.70;;;3.37;;
7173;SDS011;3628;48.654;8.932;2023-08-01T06:48:45;4.82;;;3.63;;
7173;SDS011;3628;48.654;8.932;2023-08-01T06:51:10;6.00;;;3.58;;
7173;SDS011;3628;48.654;8.932;2023-08-01T06:53:36;6.75;;;4.00;;
7173;SDS011;3628;48.654;8.932;2023-08-01T06:56:01;5.18;;;3.63;;
7173;SDS011;3628;48.654;8.932;2023-08-01T06:58:27;4.10;;;3.13;;
7173;SDS011;3628;48.654;8.932;2023-08-01T07:00:52;7.00;;;3.40;;
7173;SDS011;3628;48.654;8.932;2023-08-01T07:03:18;7.75;;;3.33;;
7173;SDS011;3628;48.654;8.932;2023-08-01T07:05:43;5.88;;;3.67;;
7173;SDS011;3628;48.654;8.932;2023-08-01T07:08:09;3.40;;;2.87;;
7173;SDS011;3628;48.654;8.932;2023-08-01T07:10:35;4.15;;;3.35;;
7173;SDS011;3628;48.654;8.932;2023-08-01T07:13:01;5.63;;;3.13;;
7173;SDS011;3628;48.654;8.932;2023-08-01T07:15:29;3.97;;;2.80;;
7173;SDS011;3628;48.654;8.932;2023-08-01T07:17:55;5.43;;;3.17;;
7173;SDS011;3628;48.654;8.932;2023-08-01T07:20:21;4.10;;;3.00;;
7173;SDS011;3628;48.654;8.932;2023-08-01T07:22:46;4.20;;;2.60;;
7173;SDS011;3628;48.654;8.932;2023-08-01T07:25:12;4.60;;;2.90;;
7173;SDS011;3628;48.654;8.932;2023-08-01T07:27:37;3.27;;;2.20;;
7173;SDS011;3628;48.654;8.932;2023-08-01T07:30:03;4.07;;;2.40;;
7173;SDS011;3628;48.654;8.932;2023-08-01T07:32:30;4.00;;;2.23;;
7173;SDS011;3628;48.654;8.932;2023-08-01T07:34:55;2.03;;;1.70;;
7173;SDS011;3628;48.654;8.932;2023-08-01T07:37:21;2.13;;;1.60;;
7173;SDS011;3628;48.654;8.932;2023-08-01T07:39:46;2.30;;;2.00;;
7173;SDS011;3628;48.654;8.932;2023-08-01T07:42:14;2.93;;;1.60;;
7173;SDS011;3628;48.654;8.932;2023-08-01T07:44:39;1.93;;;1.73;;
7173;SDS011;3628;48.654;8.932;2023-08-01T07:47:05;2.30;;;1.30;;
7173;SDS011;3628;48.654;8.932;2023-08-01T07:49:30;2.73;;;1.53;;
7173;SDS011;3628;48.654;8.932;2023-08-01T07:51:56;1.90;;;1.57;;
7173;SDS011;3628;48.654;8.932;2023-08-01T07:54:21;2.73;;;1.67;;
7173;SDS011;3628;48.654;8.932;2023-08-01T07:56:49;2.40;;;1.83;;
7173;SDS011;3628;48.654;8.932;2023-08-01T07:59:14;3.00;;;1.77;;
7173;SDS011;3628;48.654;8.932;2023-08-01T08:01:40;3.10;;;1.47;;
7173;SDS011;3628;48.654;8.932;2023-08-01T08:04:06;2.37;;;1.70;;
7173;SDS011;3628;48.654;8.932;2023-08-01T08:06:31;3.00;;;1.43;;
7173;SDS011;3628;48.654;8.932;2023-08-01T08:08:57;2.33;;;1.30;;
7173;SDS011;3628;48.654;8.932;2023-08-01T08:11:22;3.10;;;1.60;;
7173;SDS011;3628;48.654;8.932;2023-08-01T08:13:48;1.83;;;1.30;;
7173;SDS011;3628;48.654;8.932;2023-08-01T08:16:14;1.93;;;1.57;;
7173;SDS011;3628;48.654;8.932;2023-08-01T08:18:39;2.23;;;1.20;;
7173;SDS011;3628;48.654;8.932;2023-08-01T08:21:06;2.23;;;1.67;;
7173;SDS011;3628;48.654;8.932;2023-08-01T08:23:32;1.70;;;1.30;;
7173;SDS011;3628;48.654;8.932;2023-08-01T08:25:57;3.97;;;1.80;;
7173;SDS011;3628;48.654;8.932;2023-08-01T08:28:30;2.30;;;1.80;;
7173;SDS011;3628;48.654;8.932;2023-08-01T08:30:58;3.07;;;1.53;;
7173;SDS011;3628;48.654;8.932;2023-08-01T08:33:23;1.98;;;1.70;;
7173;SDS011;3628;48.654;8.932;2023-08-01T08:35:49;1.97;;;1.30;;
7173;SDS011;3628;48.654;8.932;2023-08-01T08:38:16;1.75;;;1.63;;
7173;SDS011;3628;48.654;8.932;2023-08-01T08:40:43;1.70;;;1.33;;
7173;SDS011;3628;48.654;8.932;2023-08-01T08:43:26;2.33;;;1.85;;
7173;SDS011;3628;48.654;8.932;2023-08-01T08:45:53;1.85;;;1.45;;
7173;SDS011;3628;48.654;8.932;2023-08-01T08:48:21;3.13;;;1.92;;
7173;SDS011;3628;48.654;8.932;2023-08-01T08:50:47;1.70;;;1.35;;
7173;SDS011;3628;48.654;8.932;2023-08-01T08:53:14;1.40;;;1.20;;
7173;SDS011;3628;48.654;8.932;2023-08-01T08:55:41;1.95;;;1.45;;
7173;SDS011;3628;48.654;8.932;2023-08-01T08:58:07;3.22;;;1.52;;
7173;SDS011;3628;48.654;8.932;2023-08-01T09:00:36;1.30;;;1.20;;
7173;SDS011;3628;48.654;8.932;2023-08-01T09:03:02;1.42;;;1.15;;
7173;SDS011;3628;48.654;8.932;2023-08-01T09:05:30;1.75;;;1.15;;
7173;SDS011;3628;48.654;8.932;2023-08-01T09:07:59;1.17;;;0.98;;
7173;SDS011;3628;48.654;8.932;2023-08-01T09:10:30;1.05;;;1.00;;
7173;SDS011;3628;48.654;8.932;2023-08-01T09:12:56;1.02;;;0.80;;
7173;SDS011;3628;48.654;8.932;2023-08-01T09:15:21;2.45;;;0.88;;
7173;SDS011;3628;48.654;8.932;2023-08-01T09:17:50;0.73;;;0.50;;
7173;SDS011;3628;48.654;8.932;2023-08-01T09:20:16;1.42;;;0.65;;
7173;SDS011;3628;48.654;8.932;2023-08-01T09:22:43;1.13;;;0.55;;
7173;SDS011;3628;48.654;8.932;2023-08-01T09:25:09;0.32;;;0.32;;
7173;SDS011;3628;48.654;8.932;2023-08-01T09:27:35;0.60;;;0.30;;
7173;SDS011;3628;48.654;8.932;2023-08-01T09:30:07;0.30;;;0.30;;
7173;SDS011;3628;48.654;8.932;2023-08-01T09:32:38;0.38;;;0.38;;
7173;SDS011;3628;48.654;8.932;2023-08-01T09:35:04;0.35;;;0.20;;
7173;SDS011;3628;48.654;8.932;2023-08-01T09:37:40;0.65;;;0.30;;
7173;SDS011;3628;48.654;8.932;2023-08-01T09:40:08;0.50;;;0.30;;
7173;SDS011;3628;48.654;8.932;2023-08-01T09:42:40;0.38;;;0.20;;
7173;SDS011;3628;48.654;8.932;2023-08-01T09:45:16;0.43;;;0.28;;
7173;SDS011;3628;48.654;8.932;2023-08-01T09:47:43;0.30;;;0.30;;
7173;SDS011;3628;48.654;8.932;2023-08-01T09:50:09;0.25;;;0.25;;
7173;SDS011;3628;48.654;8.932;2023-08-01T09:52:39;0.77;;;0.30;;
7173;SDS011;3628;48.654;8.932;2023-08-01T09:55:05;0.28;;;0.25;;
7173;SDS011;3628;48.654;8.932;2023-08-01T09:57:31;0.85;;;0.20;;
7173;SDS011;3628;48.654;8.932;2023-08-01T09:59:58;0.75;;;0.30;;
7173;SDS011;3628;48.654;8.932;2023-08-01T10:02:24;0.55;;;0.30;;
7173;SDS011;3628;48.654;8.932;2023-08-01T10:04:54;0.40;;;0.40;;
7173;SDS011;3628;48.654;8.932;2023-08-01T10:07:23;0.38;;;0.15;;
7173;SDS011;3628;48.654;8.932;2023-08-01T10:09:52;0.28;;;0.28;;
7173;SDS011;3628;48.654;8.932;2023-08-01T10:12:20;0.68;;;0.50;;
7173;SDS011;3628;48.654;8.932;2023-08-01T10:14:47;0.40;;;0.20;;
7173;SDS011;3628;48.654;8.932;2023-08-01T10:17:13;0.47;;;0.32;;
7173;SDS011;3628;48.654;8.932;2023-08-01T10:19:40;0.30;;;0.30;;
7173;SDS011;3628;48.654;8.932;2023-08-01T10:22:07;0.30;;;0.30;;
7173;SDS011;3628;48.654;8.932;2023-08-01T10:24:34;0.30;;;0.30;;
7173;SDS011;3628;48.654;8.932;2023-08-01T10:27:14;1.85;;;0.40;;
7173;SDS011;3628;48.654;8.932;2023-08-01T10:29:44;0.30;;;0.30;;
7173;SDS011;3628;48.654;8.932;2023-08-01T10:32:10;0.25;;;0.25;;
7173;SDS011;3628;48.654;8.932;2023-08-01T10:34:36;0.20;;;0.20;;
7173;SDS011;3628;48.654;8.932;2023-08-01T10:37:02;0.65;;;0.20;;
7173;SDS011;3628;48.654;8.932;2023-08-01T10:39:28;0.40;;;0.40;;
7173;SDS011;3628;48.654;8.932;2023-08-01T10:42:01;0.68;;;0.50;;
7173;SDS011;3628;48.654;8.932;2023-08-01T10:44:28;0.20;;;0.20;;
7173;SDS011;3628;48.654;8.932;2023-08-01T10:52:00;0.50;;;0.40;;
7173;SDS011;3628;48.654;8.932;2023-08-01T10:54:26;0.88;;;0.68;;
7173;SDS011;3628;48.654;8.932;2023-08-01T10:56:52;1.00;;;0.75;;
7173;SDS011;3628;48.654;8.932;2023-08-01T10:59:21;0.50;;;0.50;;
7173;SDS011;3628;48.654;8.932;2023-08-01T11:01:50;0.50;;;0.50;;
7173;SDS011;3628;48.654;8.932;2023-08-01T11:04:21;0.40;;;0.40;;
7173;SDS011;3628;48.654;8.932;2023-08-01T11:06:48;0.68;;;0.68;;
7173;SDS011;3628;48.654;8.932;2023-08-01T11:09:19;0.52;;;0.52;;
7173;SDS011;3628;48.654;8.932;2023-08-01T11:11:51;0.50;;;0.50;;
7173;SDS011;3628;48.654;8.932;2023-08-01T11:14:21;0.55;;;0.40;;
7173;SDS011;3628;48.654;8.932;2023-08-01T11:16:48;1.27;;;0.50;;
7173;SDS011;3628;48.654;8.932;2023-08-01T11:22:08;1.55;;;0.43;;
7173;SDS011;3628;48.654;8.932;2023-08-01T11:24:35;0.40;;;0.40;;
7173;SDS011;3628;48.654;8.932;2023-08-01T11:27:01;0.60;;;0.60;;
7173;SDS011;3628;48.654;8.932;2023-08-01T11:29:27;0.50;;;0.50;;
7173;SDS011;3628;48.654;8.932;2023-08-01T11:31:56;0.57;;;0.43;;
7173;SDS011;3628;48.654;8.932;2023-08-01T11:34:23;0.77;;;0.60;;
7173;SDS011;3628;48.654;8.932;2023-08-01T11:36:49;1.58;;;0.40;;
7173;SDS011;3628;48.654;8.932;2023-08-01T11:39:15;0.52;;;0.40;;
7173;SDS011;3628;48.654;8.932;2023-08-01T11:41:42;0.95;;;0.60;;
7173;SDS011;3628;48.654;8.932;2023-08-01T11:44:08;2.83;;;0.70;;
7173;SDS011;3628;48.654;8.932;2023-08-01T11:46:36;0.57;;;0.55;;
7173;SDS011;3628;48.654;8.932;2023-08-01T11:49:03;1.35;;;0.60;;
7173;SDS011;3628;48.654;8.932;2023-08-01T11:51:30;0.90;;;0.60;;
7173;SDS011;3628;48.654;8.932;2023-08-01T11:54:07;0.50;;;0.50;;
7173;SDS011;3628;48.654;8.932;2023-08-01T11:56:36;1.85;;;0.70;;
7173;SDS011;3628;48.654;8.932;2023-08-01T11:59:12;0.50;;;0.50;;
7173;SDS011;3628;48.654;8.932;2023-08-01T12:01:39;1.05;;;0.63;;
7173;SDS011;3628;48.654;8.932;2023-08-01T12:04:06;1.27;;;0.63;;
7173;SDS011;3628;48.654;8.932;2023-08-01T12:06:32;2.85;;;0.52;;
7173;SDS011;3628;48.654;8.932;2023-08-01T12:09:05;1.60;;;0.80;;
7173;SDS011;3628;48.654;8.932;2023-08-01T12:11:33;0.52;;;0.52;;
7173;SDS011;3628;48.654;8.932;2023-08-01T12:14:09;0.60;;;0.60;;
7173;SDS011;3628;48.654;8.932;2023-08-01T12:16:37;1.85;;;0.70;;
7173;SDS011;3628;48.654;8.932;2023-08-01T12:19:04;1.15;;;0.60;;
7173;SDS011;3628;48.654;8.932;2023-08-01T12:21:31;1.33;;;0.82;;
7173;SDS011;3628;48.654;8.932;2023-08-01T12:23:58;1.10;;;0.70;;
7173;SDS011;3628;48.654;8.932;2023-08-01T12:26:24;0.50;;;0.47;;
7173;SDS011;3628;48.654;8.932;2023-08-01T12:28:49;1.17;;;0.68;;
7173;SDS011;3628;48.654;8.932;2023-08-01T12:31:16;0.82;;;0.60;;
7173;SDS011;3628;48.654;8.932;2023-08-01T12:33:43;4.93;;;0.77;;
7173;SDS011;3628;48.654;8.932;2023-08-01T12:36:08;0.52;;;0.52;;
7173;SDS011;3628;48.654;8.932;2023-08-01T12:38:34;0.80;;;0.65;;
7173;SDS011;3628;48.654;8.932;2023-08-01T12:41:00;1.17;;;0.77;;
7173;SDS011;3628;48.654;8.932;2023-08-01T12:43:26;1.30;;;0.65;;
7173;SDS011;3628;48.654;8.932;2023-08-01T12:45:52;0.50;;;0.50;;
7173;SDS011;3628;48.654;8.932;2023-08-01T12:48:18;0.50;;;0.50;;
7173;SDS011;3628;48.654;8.932;2023-08-01T12:50:44;0.68;;;0.60;;
7173;SDS011;3628;48.654;8.932;2023-08-01T12:53:13;2.28;;;0.80;;
7173;SDS011;3628;48.654;8.932;2023-08-01T12:55:42;0.95;;;0.63;;
7173;SDS011;3628;48.654;8.932;2023-08-01T12:58:09;1.00;;;0.70;;
7173;SDS011;3628;48.654;8.932;2023-08-01T13:00:35;2.05;;;0.70;;
7173;SDS011;3628;48.654;8.932;2023-08-01T13:03:00;1.00;;;0.60;;
7173;SDS011;3628;48.654;8.932;2023-08-01T13:05:26;2.85;;;1.02;;
7173;SDS011;3628;48.654;8.932;2023-08-01T13:07:51;1.75;;;0.80;;
7173;SDS011;3628;48.654;8.932;2023-08-01T13:10:17;0.68;;;0.60;;
7173;SDS011;3628;48.654;8.932;2023-08-01T13:12:42;0.63;;;0.60;;
7173;SDS011;3628;48.654;8.932;2023-08-01T13:15:08;1.05;;;0.50;;
7173;SDS011;3628;48.654;8.932;2023-08-01T13:17:34;0.80;;;0.70;;
7173;SDS011;3628;48.654;8.932;2023-08-01T13:20:00;1.88;;;0.70;;
7173;SDS011;3628;48.654;8.932;2023-08-01T13:22:25;0.77;;;0.60;;
7173;SDS011;3628;48.654;8.932;2023-08-01T13:24:51;0.70;;;0.70;;
7173;SDS011;3628;48.654;8.932;2023-08-01T13:27:16;0.95;;;0.80;;
7173;SDS011;3628;48.654;8.932;2023-08-01T13:29:42;0.68;;;0.60;;
7173;SDS011;3628;48.654;8.932;2023-08-01T13:32:07;0.85;;;0.70;;
7173;SDS011;3628;48.654;8.932;2023-08-01T13:34:33;4.10;;;0.70;;
7173;SDS011;3628;48.654;8.932;2023-08-01T13:36:58;2.63;;;0.80;;
7173;SDS011;3628;48.654;8.932;2023-08-01T13:39:24;0.82;;;0.70;;
7173;SDS011;3628;48.654;8.932;2023-08-01T13:41:49;1.23;;;0.60;;
7173;SDS011;3628;48.654;8.932;2023-08-01T13:44:15;2.05;;;0.63;;
7173;SDS011;3628;48.654;8.932;2023-08-01T13:46:40;0.68;;;0.68;;
7173;SDS011;3628;48.654;8.932;2023-08-01T13:49:06;0.50;;;0.50;;
7173;SDS011;3628;48.654;8.932;2023-08-01T13:51:32;1.42;;;0.75;;
7173;SDS011;3628;48.654;8.932;2023-08-01T13:53:58;1.00;;;0.75;;
7173;SDS011;3628;48.654;8.932;2023-08-01T13:56:24;2.65;;;0.90;;
7173;SDS011;3628;48.654;8.932;2023-08-01T13:58:50;1.38;;;0.70;;
7173;SDS011;3628;48.654;8.932;2023-08-01T14:01:16;1.20;;;0.60;;
7173;SDS011;3628;48.654;8.932;2023-08-01T14:03:43;1.25;;;0.80;;
7173;SDS011;3628;48.654;8.932;2023-08-01T14:06:10;1.23;;;0.60;;
7173;SDS011;3628;48.654;8.932;2023-08-01T14:08:37;0.70;;;0.70;;
7173;SDS011;3628;48.654;8.932;2023-08-01T14:11:04;1.38;;;0.82;;
7173;SDS011;3628;48.654;8.932;2023-08-01T14:13:31;0.85;;;0.60;;
7173;SDS011;3628;48.654;8.932;2023-08-01T14:15:57;0.65;;;0.60;;
7173;SDS011;3628;48.654;8.932;2023-08-01T14:18:23;1.25;;;1.00;;
7173;SDS011;3628;48.654;8.932;2023-08-01T14:20:49;0.95;;;0.80;;
7173;SDS011;3628;48.654;8.932;2023-08-01T14:23:14;2.97;;;0.80;;
7173;SDS011;3628;48.654;8.932;2023-08-01T14:25:40;0.73;;;0.63;;
7173;SDS011;3628;48.654;8.932;2023-08-01T14:28:05;0.73;;;0.63;;
7173;SDS011;3628;48.654;8.932;2023-08-01T14:30:32;1.25;;;0.90;;
7173;SDS011;3628;48.654;8.932;2023-08-01T14:33:04;0.73;;;0.68;;
7173;SDS011;3628;48.654;8.932;2023-08-01T14:35:33;0.70;;;0.65;;
7173;SDS011;3628;48.654;8.932;2023-08-01T14:38:02;0.70;;;0.57;;
7173;SDS011;3628;48.654;8.932;2023-08-01T14:40:28;1.08;;;0.65;;
7173;SDS011;3628;48.654;8.932;2023-08-01T14:42:54;0.50;;;0.50;;
7173;SDS011;3628;48.654;8.932;2023-08-01T14:45:20;0.75;;;0.70;;
7173;SDS011;3628;48.654;8.932;2023-08-01T14:47:46;0.55;;;0.55;;
7173;SDS011;3628;48.654;8.932;2023-08-01T14:50:12;0.65;;;0.57;;
7173;SDS011;3628;48.654;8.932;2023-08-01T14:52:39;0.50;;;0.50;;
7173;SDS011;3628;48.654;8.932;2023-08-01T14:55:06;0.70;;;0.65;;
7173;SDS011;3628;48.654;8.932;2023-08-01T14:57:32;2.20;;;0.60;;
7173;SDS011;3628;48.654;8.932;2023-08-01T14:59:58;2.13;;;0.55;;
7173;SDS011;3628;48.654;8.932;2023-08-01T15:02:24;0.50;;;0.50;;
7173;SDS011;3628;48.654;8.932;2023-08-01T15:04:53;0.63;;;0.60;;
7173;SDS011;3628;48.654;8.932;2023-08-01T15:07:23;1.00;;;0.60;;
7173;SDS011;3628;48.654;8.932;2023-08-01T15:09:50;1.35;;;0.80;;
7173;SDS011;3628;48.654;8.932;2023-08-01T15:12:17;1.25;;;0.60;;
7173;SDS011;3628;48.654;8.932;2023-08-01T15:14:48;0.60;;;0.60;;
7173;SDS011;3628;48.654;8.932;2023-08-01T15:17:15;1.85;;;0.82;;